TimePST,TemperatureF,Dew PointF,Humidity,Sea Level PressureIn,VisibilityMPH,Wind Direction,Wind SpeedMPH,Gust SpeedMPH,PrecipitationIn,Events,Conditions,WindDirDegrees,DateUTC
12:53 AM,46.9,39.9,77,30.06,10.0,Calm,Calm,-,N/A,,Clear,0,2013-02-17 08:53:00
1:53 AM,46.9,41.0,80,30.05,10.0,ENE,3.5,-,N/A,,Clear,70,2013-02-17 09:53:00
2:53 AM,46.9,39.0,74,30.03,10.0,East,6.9,-,N/A,,Clear,80,2013-02-17 10:53:00
3:53 AM,45.0,39.0,80,30.02,10.0,NW,3.5,-,N/A,,Clear,310,2013-02-17 11:53:00
4:53 AM,41.0,37.0,86,30.03,10.0,West,5.8,-,N/A,,Clear,270,2013-02-17 12:53:00
5:53 AM,41.0,37.0,86,30.03,10.0,Calm,Calm,-,N/A,,Clear,0,2013-02-17 13:53:00
6:53 AM,37.9,36.0,93,30.04,10.0,WNW,3.5,-,N/A,,Clear,290,2013-02-17 14:53:00
7:53 AM,41.0,37.9,89,30.04,10.0,Calm,Calm,-,N/A,,Clear,0,2013-02-17 15:53:00
8:53 AM,46.0,41.0,83,30.06,10.0,West,3.5,-,N/A,,Clear,270,2013-02-17 16:53:00
9:53 AM,51.1,42.1,71,30.06,10.0,Calm,Calm,-,N/A,,Clear,0,2013-02-17 17:53:00
10:53 AM,55.0,41.0,59,30.07,10.0,NW,4.6,-,N/A,,Clear,320,2013-02-17 18:53:00
11:53 AM,59.0,41.0,51,30.05,10.0,NNW,3.5,-,N/A,,Clear,330,2013-02-17 19:53:00
12:53 PM,62.1,37.0,39,30.02,10.0,NNW,6.9,-,N/A,,Clear,330,2013-02-17 20:53:00
1:53 PM,63.0,35.1,35,30.00,10.0,Variable,5.8,-,N/A,,Clear,0,2013-02-17 21:53:00
2:53 PM,64.9,34.0,32,29.98,10.0,NW,5.8,-,N/A,,Clear,320,2013-02-17 22:53:00
3:53 PM,64.9,32.0,29,29.97,10.0,WNW,4.6,-,N/A,,Clear,290,2013-02-17 23:53:00
4:53 PM,63.0,34.0,34,29.97,10.0,Calm,Calm,-,N/A,,Clear,0,2013-02-18 00:53:00
5:53 PM,60.1,33.1,36,29.96,10.0,SW,4.6,-,N/A,,Clear,220,2013-02-18 01:53:00
6:53 PM,52.0,35.1,53,29.97,10.0,Calm,Calm,-,N/A,,Clear,0,2013-02-18 02:53:00
7:53 PM,51.1,36.0,56,29.99,10.0,ENE,4.6,-,N/A,,Clear,70,2013-02-18 03:53:00
9:53 PM,48.0,39.0,71,29.99,10.0,East,5.8,-,N/A,,Clear,100,2013-02-18 05:53:00
10:53 PM,46.9,37.9,71,29.99,10.0,East,4.6,-,N/A,,Clear,80,2013-02-18 06:53:00
11:53 PM,46.0,39.0,76,29.99,10.0,ESE,5.8,-,N/A,,Clear,120,2013-02-18 07:53:00